Terminal Aerodrome Forecast
Issued by NWS

Home | Current Version | Previous Version | Text Only | Print | Product List | Glossary On
Versions: 1 2 3 4 5 6 7 8 9 10 11 12 13 14 15 16 17 18 19 20 21 22 23 24 25 26 27 28 29 30 31 32
000
FTUS41 KCTP 051618 AAA
TAFJST
TAF AMD
KJST 051618Z 0516/0612 07005KT P6SM OVC025
     FM051800 02007KT P6SM VCSH BKN035
     FM060100 36006KT 5SM BR VCSH OVC015
     FM060600 36005KT 2SM -RA BR OVC007=

USA.gov is the U.S. government's official web portal to all federal, state and local government web resources and services.